sensor_id;sensor_type;location;lat;lon;timestamp;pressure;altitude;pressure_sealevel;temperature;humidity
50732;BME280;36700;50.488;2.544;2023-05-24T00:01:52;102140.34;;;17.05;52.05
50732;BME280;36700;50.488;2.544;2023-05-24T00:04:21;102140.34;;;17.05;51.44
50732;BME280;36700;50.488;2.544;2023-05-24T00:06:50;102149.53;;;17.04;51.86
50732;BME280;36700;50.488;2.544;2023-05-24T00:09:16;102136.16;;;17.03;52.14
50732;BME280;36700;50.488;2.544;2023-05-24T00:11:42;102135.31;;;17.02;51.85
50732;BME280;36700;50.488;2.544;2023-05-24T00:14:08;102132.78;;;17.01;52.13
50732;BME280;36700;50.488;2.544;2023-05-24T00:16:34;102132.16;;;16.99;52.18
50732;BME280;36700;50.488;2.544;2023-05-24T00:19:01;102141.13;;;16.99;51.94
50732;BME280;36700;50.488;2.544;2023-05-24T00:21:27;102136.75;;;16.98;51.68
50732;BME280;36700;50.488;2.544;2023-05-24T00:23:53;102148.66;;;16.97;51.69
50732;BME280;36700;50.488;2.544;2023-05-24T00:36:25;102154.13;;;16.90;51.97
50732;BME280;36700;50.488;2.544;2023-05-24T00:38:51;102165.81;;;16.91;51.83
50732;BME280;36700;50.488;2.544;2023-05-24T00:41:18;102156.84;;;16.90;51.88
50732;BME280;36700;50.488;2.544;2023-05-24T00:43:44;102157.84;;;16.89;51.71
50732;BME280;36700;50.488;2.544;2023-05-24T00:46:30;102156.19;;;16.88;51.94
50732;BME280;36700;50.488;2.544;2023-05-24T00:48:56;102158.28;;;16.86;52.18
50732;BME280;36700;50.488;2.544;2023-05-24T00:51:23;102155.78;;;16.85;51.92
50732;BME280;36700;50.488;2.544;2023-05-24T00:53:51;102152.22;;;16.84;52.00
50732;BME280;36700;50.488;2.544;2023-05-24T00:56:17;102150.53;;;16.83;52.06
50732;BME280;36700;50.488;2.544;2023-05-24T00:58:43;102148.88;;;16.82;52.04
50732;BME280;36700;50.488;2.544;2023-05-24T01:01:10;102148.25;;;16.80;51.77
50732;BME280;36700;50.488;2.544;2023-05-24T01:03:37;102153.69;;;16.80;52.06
50732;BME280;36700;50.488;2.544;2023-05-24T01:06:05;102149.50;;;16.77;52.36
50732;BME280;36700;50.488;2.544;2023-05-24T01:14:20;102146.16;;;16.75;52.00
50732;BME280;36700;50.488;2.544;2023-05-24T01:24:57;102153.03;;;16.71;51.91
50732;BME280;36700;50.488;2.544;2023-05-24T01:27:30;102145.09;;;16.69;52.30
50732;BME280;36700;50.488;2.544;2023-05-24T01:29:59;102151.56;;;16.68;51.90
50732;BME280;36700;50.488;2.544;2023-05-24T01:32:25;102149.06;;;16.67;52.00
50732;BME280;36700;50.488;2.544;2023-05-24T01:34:51;102154.50;;;16.67;52.36
50732;BME280;36700;50.488;2.544;2023-05-24T01:37:17;102151.97;;;16.65;52.63
50732;BME280;36700;50.488;2.544;2023-05-24T01:39:44;102144.88;;;16.64;52.31
50732;BME280;36700;50.488;2.544;2023-05-24T01:42:34;102147.59;;;16.64;52.53
50732;BME280;36700;50.488;2.544;2023-05-24T01:45:06;102138.63;;;16.64;52.10
50732;BME280;36700;50.488;2.544;2023-05-24T01:47:51;102129.63;;;16.63;52.29
50732;BME280;36700;50.488;2.544;2023-05-24T01:50:37;102136.31;;;16.61;52.27
50732;BME280;36700;50.488;2.544;2023-05-24T01:53:08;102140.91;;;16.60;52.36
50732;BME280;36700;50.488;2.544;2023-05-24T01:55:38;102136.50;;;16.59;52.15
50732;BME280;36700;50.488;2.544;2023-05-24T01:58:05;102133.78;;;16.59;51.87
50732;BME280;36700;50.488;2.544;2023-05-24T02:00:33;102132.13;;;16.58;52.63
50732;BME280;36700;50.488;2.544;2023-05-24T02:03:00;102134.22;;;16.56;52.36
50732;BME280;36700;50.488;2.544;2023-05-24T02:05:26;102130.66;;;16.55;52.04
50732;BME280;36700;50.488;2.544;2023-05-24T02:07:52;102139.03;;;16.54;52.19
50732;BME280;36700;50.488;2.544;2023-05-24T02:10:18;102130.88;;;16.54;52.20
50732;BME280;36700;50.488;2.544;2023-05-24T02:12:44;102131.91;;;16.53;52.33
50732;BME280;36700;50.488;2.544;2023-05-24T02:15:10;102132.34;;;16.50;52.70
50732;BME280;36700;50.488;2.544;2023-05-24T02:17:40;102127.75;;;16.50;52.42
50732;BME280;36700;50.488;2.544;2023-05-24T02:20:08;102127.75;;;16.50;52.30
50732;BME280;36700;50.488;2.544;2023-05-24T02:22:34;102126.91;;;16.50;52.35
50732;BME280;36700;50.488;2.544;2023-05-24T02:25:00;102122.72;;;16.47;52.25
50732;BME280;36700;50.488;2.544;2023-05-24T02:27:26;102126.47;;;16.46;52.11
50732;BME280;36700;50.488;2.544;2023-05-24T02:29:52;102126.47;;;16.46;52.04
50732;BME280;36700;50.488;2.544;2023-05-24T02:32:17;102131.06;;;16.46;52.49
50732;BME280;36700;50.488;2.544;2023-05-24T02:34:43;102130.25;;;16.45;52.37
50732;BME280;36700;50.488;2.544;2023-05-24T02:37:10;102123.97;;;16.45;52.28
50732;BME280;36700;50.488;2.544;2023-05-24T02:39:40;102132.31;;;16.43;52.30
50732;BME280;36700;50.488;2.544;2023-05-24T02:42:07;102134.19;;;16.42;52.28
50732;BME280;36700;50.488;2.544;2023-05-24T02:44:34;102127.09;;;16.41;51.96
50732;BME280;36700;50.488;2.544;2023-05-24T02:47:00;102128.13;;;16.40;52.16
50732;BME280;36700;50.488;2.544;2023-05-24T02:49:26;102127.31;;;16.40;52.09
50732;BME280;36700;50.488;2.544;2023-05-24T02:51:52;102123.75;;;16.39;52.55
50732;BME280;36700;50.488;2.544;2023-05-24T02:54:17;102129.38;;;16.38;51.63
50732;BME280;36700;50.488;2.544;2023-05-24T02:56:43;102125.84;;;16.37;51.85
50732;BME280;36700;50.488;2.544;2023-05-24T02:59:09;102120.59;;;16.36;51.86
50732;BME280;36700;50.488;2.544;2023-05-24T03:01:36;102114.34;;;16.35;51.92
50732;BME280;36700;50.488;2.544;2023-05-24T03:04:02;102120.81;;;16.34;52.06
50732;BME280;36700;50.488;2.544;2023-05-24T03:06:27;102119.97;;;16.34;52.05
50732;BME280;36700;50.488;2.544;2023-05-24T03:08:53;102120.19;;;16.32;51.62
50732;BME280;36700;50.488;2.544;2023-05-24T03:11:19;102115.81;;;16.31;51.91
50732;BME280;36700;50.488;2.544;2023-05-24T03:13:47;102112.25;;;16.31;52.04
50732;BME280;36700;50.488;2.544;2023-05-24T03:16:13;102126.66;;;16.31;51.47
50732;BME280;36700;50.488;2.544;2023-05-24T03:18:39;102117.91;;;16.29;51.68
50732;BME280;36700;50.488;2.544;2023-05-24T03:21:05;102125.19;;;16.28;51.56
50732;BME280;36700;50.488;2.544;2023-05-24T03:23:32;102115.78;;;16.24;51.70
50732;BME280;36700;50.488;2.544;2023-05-24T03:25:58;102119.97;;;16.27;51.80
50732;BME280;36700;50.488;2.544;2023-05-24T03:28:23;102121.00;;;16.26;52.06
50732;BME280;36700;50.488;2.544;2023-05-24T03:30:49;102116.81;;;16.23;51.78
50732;BME280;36700;50.488;2.544;2023-05-24T03:33:15;102115.78;;;16.24;51.79
50732;BME280;36700;50.488;2.544;2023-05-24T03:35:41;102123.91;;;16.24;51.64
50732;BME280;36700;50.488;2.544;2023-05-24T03:38:07;102118.72;;;16.23;51.75
50732;BME280;36700;50.488;2.544;2023-05-24T03:40:33;102126.19;;;16.21;51.88
50732;BME280;36700;50.488;2.544;2023-05-24T03:42:59;102132.47;;;16.21;51.75
50732;BME280;36700;50.488;2.544;2023-05-24T03:45:25;102122.88;;;16.19;52.16
50732;BME280;36700;50.488;2.544;2023-05-24T03:47:51;102124.53;;;16.20;51.97
50732;BME280;36700;50.488;2.544;2023-05-24T03:50:17;102116.59;;;16.18;51.61
50732;BME280;36700;50.488;2.544;2023-05-24T03:52:43;102115.78;;;16.18;52.07
50732;BME280;36700;50.488;2.544;2023-05-24T03:55:08;102112.41;;;16.15;51.79
50732;BME280;36700;50.488;2.544;2023-05-24T03:57:34;102125.16;;;16.15;52.13
50732;BME280;36700;50.488;2.544;2023-05-24T04:00:00;102124.31;;;16.14;52.05
50732;BME280;36700;50.488;2.544;2023-05-24T04:02:26;102128.91;;;16.14;51.50
50732;BME280;36700;50.488;2.544;2023-05-24T04:04:52;102118.25;;;16.12;51.58
50732;BME280;36700;50.488;2.544;2023-05-24T04:07:18;102116.59;;;16.11;52.03
50732;BME280;36700;50.488;2.544;2023-05-24T04:09:44;102113.03;;;16.11;51.75
50732;BME280;36700;50.488;2.544;2023-05-24T04:12:10;102114.06;;;16.10;52.33
50732;BME280;36700;50.488;2.544;2023-05-24T04:14:36;102111.34;;;16.10;52.14
50732;BME280;36700;50.488;2.544;2023-05-24T04:17:02;102109.69;;;16.09;52.39
50732;BME280;36700;50.488;2.544;2023-05-24T04:19:30;102108.03;;;16.08;52.22
50732;BME280;36700;50.488;2.544;2023-05-24T04:21:56;102103.59;;;16.07;52.40
50732;BME280;36700;50.488;2.544;2023-05-24T04:24:22;102102.78;;;16.06;52.44
50732;BME280;36700;50.488;2.544;2023-05-24T04:26:48;102099.22;;;16.06;52.15
50732;BME280;36700;50.488;2.544;2023-05-24T04:29:14;102101.94;;;16.06;53.05
50732;BME280;36700;50.488;2.544;2023-05-24T04:31:40;102110.94;;;16.06;52.75
50732;BME280;36700;50.488;2.544;2023-05-24T04:34:09;102105.69;;;16.05;52.32
50732;BME280;36700;50.488;2.544;2023-05-24T04:36:38;102104.03;;;16.04;52.67
50732;BME280;36700;50.488;2.544;2023-05-24T04:39:05;102111.31;;;16.03;52.34
50732;BME280;36700;50.488;2.544;2023-05-24T04:41:31;102103.19;;;16.03;52.13
50732;BME280;36700;50.488;2.544;2023-05-24T04:44:00;102121.34;;;16.02;52.73
50732;BME280;36700;50.488;2.544;2023-05-24T04:46:26;102116.97;;;16.01;52.38
50732;BME280;36700;50.488;2.544;2023-05-24T04:48:52;102119.69;;;16.01;52.80
50732;BME280;36700;50.488;2.544;2023-05-24T04:51:20;102120.09;;;15.98;52.71
50732;BME280;36700;50.488;2.544;2023-05-24T04:53:46;102118.00;;;16.00;52.40
50732;BME280;36700;50.488;2.544;2023-05-24T04:56:12;102120.72;;;16.00;52.38
50732;BME280;36700;50.488;2.544;2023-05-24T04:58:40;102126.97;;;16.01;52.66
50732;BME280;36700;50.488;2.544;2023-05-24T05:01:06;102120.94;;;15.99;52.37
50732;BME280;36700;50.488;2.544;2023-05-24T05:03:32;102120.94;;;15.99;52.54
50732;BME280;36700;50.488;2.544;2023-05-24T05:05:58;102126.34;;;15.99;52.77
50732;BME280;36700;50.488;2.544;2023-05-24T05:08:24;102121.94;;;15.98;52.30
50732;BME280;36700;50.488;2.544;2023-05-24T05:10:50;102121.53;;;15.94;52.42
50732;BME280;36700;50.488;2.544;2023-05-24T05:13:16;102129.06;;;15.99;52.24
50732;BME280;36700;50.488;2.544;2023-05-24T05:15:42;102128.41;;;15.97;52.11
50732;BME280;36700;50.488;2.544;2023-05-24T05:18:08;102126.75;;;15.96;52.47
50732;BME280;36700;50.488;2.544;2023-05-24T05:20:34;102130.31;;;15.96;52.63
50732;BME280;36700;50.488;2.544;2023-05-24T05:23:00;102134.69;;;15.97;52.81
50732;BME280;36700;50.488;2.544;2023-05-24T05:25:26;102141.97;;;15.97;52.87
50732;BME280;36700;50.488;2.544;2023-05-24T05:27:52;102141.16;;;15.96;52.40
50732;BME280;36700;50.488;2.544;2023-05-24T05:30:18;102143.66;;;15.98;52.38
50732;BME280;36700;50.488;2.544;2023-05-24T05:32:44;102141.97;;;15.97;52.40
50732;BME280;36700;50.488;2.544;2023-05-24T05:35:09;102144.69;;;15.97;52.47
50732;BME280;36700;50.488;2.544;2023-05-24T05:37:35;102143.88;;;15.96;52.69
50732;BME280;36700;50.488;2.544;2023-05-24T05:40:01;102146.59;;;15.96;52.82
50732;BME280;36700;50.488;2.544;2023-05-24T05:42:29;102141.16;;;15.96;52.51
50732;BME280;36700;50.488;2.544;2023-05-24T05:44:56;102149.31;;;15.96;52.62
50732;BME280;36700;50.488;2.544;2023-05-24T05:47:22;102149.31;;;15.96;52.55
50732;BME280;36700;50.488;2.544;2023-05-24T05:49:47;102147.63;;;15.95;52.71
50732;BME280;36700;50.488;2.544;2023-05-24T05:52:13;102141.16;;;15.96;52.59
50732;BME280;36700;50.488;2.544;2023-05-24T05:54:39;102138.44;;;15.96;52.12
50732;BME280;36700;50.488;2.544;2023-05-24T05:57:05;102123.41;;;15.94;52.07
50732;BME280;36700;50.488;2.544;2023-05-24T05:59:35;102120.28;;;15.97;53.09
50732;BME280;36700;50.488;2.544;2023-05-24T06:02:02;102121.94;;;15.98;52.24
50732;BME280;36700;50.488;2.544;2023-05-24T06:04:28;102114.84;;;15.97;52.50
50732;BME280;36700;50.488;2.544;2023-05-24T06:06:54;102106.50;;;15.98;52.81
50732;BME280;36700;50.488;2.544;2023-05-24T06:09:20;102107.38;;;15.99;52.26
50732;BME280;36700;50.488;2.544;2023-05-24T06:11:45;102109.03;;;16.00;52.53
50732;BME280;36700;50.488;2.544;2023-05-24T06:14:12;102111.75;;;16.00;52.51
50732;BME280;36700;50.488;2.544;2023-05-24T06:16:44;102112.56;;;16.00;52.95
50732;BME280;36700;50.488;2.544;2023-05-24T06:19:11;102113.22;;;16.02;52.17
50732;BME280;36700;50.488;2.544;2023-05-24T06:21:39;102104.66;;;16.06;52.27
50732;BME280;36700;50.488;2.544;2023-05-24T06:24:11;102120.53;;;16.15;51.95
50732;BME280;36700;50.488;2.544;2023-05-24T06:26:37;102130.00;;;16.26;51.29
50732;BME280;36700;50.488;2.544;2023-05-24T06:29:03;102123.31;;;16.36;51.61
50732;BME280;36700;50.488;2.544;2023-05-24T06:31:29;102119.16;;;16.47;51.82
50732;BME280;36700;50.488;2.544;2023-05-24T06:33:55;102121.91;;;16.60;51.23
50732;BME280;36700;50.488;2.544;2023-05-24T06:36:21;102117.94;;;16.69;50.78
50732;BME280;36700;50.488;2.544;2023-05-24T06:38:47;102122.72;;;16.74;50.49
50732;BME280;36700;50.488;2.544;2023-05-24T06:41:13;102111.03;;;16.80;50.21
50732;BME280;36700;50.488;2.544;2023-05-24T06:43:39;102106.88;;;16.85;50.04
50732;BME280;36700;50.488;2.544;2023-05-24T06:46:05;102110.66;;;16.90;49.61
50732;BME280;36700;50.488;2.544;2023-05-24T06:48:31;102107.50;;;17.00;50.12
50732;BME280;36700;50.488;2.544;2023-05-24T06:50:57;102113.38;;;17.04;49.53
50732;BME280;36700;50.488;2.544;2023-05-24T06:53:23;102104.59;;;17.08;49.79
50732;BME280;36700;50.488;2.544;2023-05-24T06:55:49;102113.13;;;16.99;50.17
50732;BME280;36700;50.488;2.544;2023-05-24T06:58:15;102109.00;;;17.03;50.05
50732;BME280;36700;50.488;2.544;2023-05-24T07:00:41;102101.88;;;17.08;49.94
50732;BME280;36700;50.488;2.544;2023-05-24T07:03:08;102099.56;;;17.12;49.25
50732;BME280;36700;50.488;2.544;2023-05-24T07:05:34;102112.91;;;17.34;49.62
50732;BME280;36700;50.488;2.544;2023-05-24T07:08:00;102105.72;;;17.60;48.76
50732;BME280;36700;50.488;2.544;2023-05-24T07:10:26;102112.91;;;17.93;47.59
50732;BME280;36700;50.488;2.544;2023-05-24T07:12:52;102106.69;;;18.57;46.00
50732;BME280;36700;50.488;2.544;2023-05-24T07:15:18;102108.25;;;20.28;42.48
50732;BME280;36700;50.488;2.544;2023-05-24T07:17:44;102114.69;;;21.00;40.55
50732;BME280;36700;50.488;2.544;2023-05-24T07:20:10;102108.16;;;21.66;39.08
50732;BME280;36700;50.488;2.544;2023-05-24T07:22:36;102114.34;;;21.85;38.83
50732;BME280;36700;50.488;2.544;2023-05-24T07:25:03;102118.78;;;21.74;38.92
50732;BME280;36700;50.488;2.544;2023-05-24T07:27:30;102122.72;;;21.66;39.24
50732;BME280;36700;50.488;2.544;2023-05-24T07:29:56;102121.81;;;21.90;38.51
50732;BME280;36700;50.488;2.544;2023-05-24T07:32:23;102134.69;;;21.01;39.90
50732;BME280;36700;50.488;2.544;2023-05-24T07:34:49;102136.19;;;19.99;42.07
50732;BME280;36700;50.488;2.544;2023-05-24T07:37:15;102133.66;;;19.42;44.49
50732;BME280;36700;50.488;2.544;2023-05-24T07:39:43;102143.22;;;19.07;45.52
50732;BME280;36700;50.488;2.544;2023-05-24T07:42:09;102133.38;;;18.80;46.04
50732;BME280;36700;50.488;2.544;2023-05-24T07:44:35;102136.22;;;18.60;46.45
50732;BME280;36700;50.488;2.544;2023-05-24T07:47:01;102141.25;;;18.24;47.71
50732;BME280;36700;50.488;2.544;2023-05-24T07:49:29;102130.47;;;18.04;47.76
50732;BME280;36700;50.488;2.544;2023-05-24T07:51:55;102134.06;;;17.91;48.47
50732;BME280;36700;50.488;2.544;2023-05-24T07:54:24;102128.03;;;17.82;48.27
50732;BME280;36700;50.488;2.544;2023-05-24T07:56:50;102128.50;;;17.72;48.43
50732;BME280;36700;50.488;2.544;2023-05-24T07:59:16;102122.25;;;17.65;49.07
50732;BME280;36700;50.488;2.544;2023-05-24T08:01:42;102132.28;;;17.65;49.13
50732;BME280;36700;50.488;2.544;2023-05-24T08:04:08;102111.56;;;17.63;49.25
50732;BME280;36700;50.488;2.544;2023-05-24T08:06:35;102119.72;;;17.63;49.33
50732;BME280;36700;50.488;2.544;2023-05-24T08:09:02;102115.56;;;17.61;48.99
50732;BME280;36700;50.488;2.544;2023-05-24T08:11:29;102116.16;;;17.63;49.19
50732;BME280;36700;50.488;2.544;2023-05-24T08:13:55;102115.94;;;17.65;49.10
50732;BME280;36700;50.488;2.544;2023-05-24T08:16:21;102119.72;;;17.63;49.23
50732;BME280;36700;50.488;2.544;2023-05-24T08:18:47;102121.19;;;17.66;49.40
50732;BME280;36700;50.488;2.544;2023-05-24T08:21:13;102123.91;;;17.66;49.12
50732;BME280;36700;50.488;2.544;2023-05-24T08:23:39;102123.91;;;17.66;49.28
50732;BME280;36700;50.488;2.544;2023-05-24T08:26:05;102119.31;;;17.67;49.36
50732;BME280;36700;50.488;2.544;2023-05-24T08:28:31;102119.53;;;17.65;49.20
50732;BME280;36700;50.488;2.544;2023-05-24T08:30:57;102117.84;;;17.64;49.20
50732;BME280;36700;50.488;2.544;2023-05-24T08:33:23;102113.88;;;17.60;49.54
50732;BME280;36700;50.488;2.544;2023-05-24T08:35:49;102120.19;;;17.60;49.26
50732;BME280;36700;50.488;2.544;2023-05-24T08:38:16;102112.22;;;17.59;49.41
50732;BME280;36700;50.488;2.544;2023-05-24T08:40:43;102129.81;;;17.56;49.73
50732;BME280;36700;50.488;2.544;2023-05-24T08:43:09;102120.78;;;17.56;49.55
50732;BME280;36700;50.488;2.544;2023-05-24T08:45:38;102116.00;;;17.58;49.60
50732;BME280;36700;50.488;2.544;2023-05-24T08:48:05;102118.06;;;17.62;49.53
50732;BME280;36700;50.488;2.544;2023-05-24T08:50:34;102116.16;;;17.63;49.63
50732;BME280;36700;50.488;2.544;2023-05-24T08:53:00;102121.59;;;17.63;49.63
50732;BME280;36700;50.488;2.544;2023-05-24T08:55:29;102118.91;;;17.56;49.92
50732;BME280;36700;50.488;2.544;2023-05-24T08:57:56;102129.41;;;17.53;49.88
50732;BME280;36700;50.488;2.544;2023-05-24T09:00:22;102124.56;;;17.48;49.90
50732;BME280;36700;50.488;2.544;2023-05-24T09:02:48;102132.34;;;17.31;49.08
50732;BME280;36700;50.488;2.544;2023-05-24T09:05:15;102124.22;;;17.24;49.50
50732;BME280;36700;50.488;2.544;2023-05-24T09:07:47;102132.16;;;17.26;49.93
50732;BME280;36700;50.488;2.544;2023-05-24T09:10:14;102126.31;;;17.22;49.61
50732;BME280;36700;50.488;2.544;2023-05-24T09:12:44;102123.38;;;17.23;49.46
50732;BME280;36700;50.488;2.544;2023-05-24T09:15:12;102130.50;;;17.25;49.48
50732;BME280;36700;50.488;2.544;2023-05-24T09:17:38;102133.22;;;17.25;49.80
50732;BME280;36700;50.488;2.544;2023-05-24T09:20:06;102127.97;;;17.23;49.71
50732;BME280;36700;50.488;2.544;2023-05-24T09:22:36;102124.03;;;17.19;49.70
50732;BME280;36700;50.488;2.544;2023-05-24T09:25:05;102125.69;;;17.20;49.31
50732;BME280;36700;50.488;2.544;2023-05-24T09:27:34;102128.00;;;17.16;49.39
50732;BME280;36700;50.488;2.544;2023-05-24T09:30:01;102123.19;;;17.18;49.66
50732;BME280;36700;50.488;2.544;2023-05-24T09:32:29;102123.38;;;17.17;49.47
50732;BME280;36700;50.488;2.544;2023-05-24T09:34:57;102115.66;;;17.14;49.13
50732;BME280;36700;50.488;2.544;2023-05-24T09:37:24;102114.19;;;17.11;49.67
50732;BME280;36700;50.488;2.544;2023-05-24T09:39:53;102112.53;;;17.10;49.59
50732;BME280;36700;50.488;2.544;2023-05-24T09:42:22;102116.31;;;17.09;49.44
50732;BME280;36700;50.488;2.544;2023-05-24T09:45:03;102117.13;;;17.09;49.78
50732;BME280;36700;50.488;2.544;2023-05-24T09:47:33;102118.16;;;17.08;49.69
50732;BME280;36700;50.488;2.544;2023-05-24T09:50:04;102114.59;;;17.08;49.70
50732;BME280;36700;50.488;2.544;2023-05-24T09:52:35;102108.56;;;17.06;49.60
50732;BME280;36700;50.488;2.544;2023-05-24T09:55:15;102109.59;;;17.05;49.75
50732;BME280;36700;50.488;2.544;2023-05-24T09:57:43;102109.59;;;17.05;49.52
50732;BME280;36700;50.488;2.544;2023-05-24T10:00:09;102105.22;;;17.04;49.68
50732;BME280;36700;50.488;2.544;2023-05-24T10:02:43;102106.88;;;17.05;49.54
50732;BME280;36700;50.488;2.544;2023-05-24T10:05:10;102108.16;;;17.02;49.83
50732;BME280;36700;50.488;2.544;2023-05-24T10:07:37;102102.06;;;17.00;49.81
50732;BME280;36700;50.488;2.544;2023-05-24T10:10:04;102102.88;;;17.01;49.81
50732;BME280;36700;50.488;2.544;2023-05-24T10:12:31;102099.56;;;16.99;50.10
50732;BME280;36700;50.488;2.544;2023-05-24T10:14:57;102102.47;;;16.97;49.82
50732;BME280;36700;50.488;2.544;2023-05-24T10:17:24;102098.94;;;16.96;50.03
50732;BME280;36700;50.488;2.544;2023-05-24T10:19:52;102105.19;;;16.97;50.08
50732;BME280;36700;50.488;2.544;2023-05-24T10:22:19;102090.97;;;16.95;49.74
50732;BME280;36700;50.488;2.544;2023-05-24T10:24:48;102087.22;;;16.96;49.73
50732;BME280;36700;50.488;2.544;2023-05-24T10:27:21;102087.41;;;16.94;50.29
50732;BME280;36700;50.488;2.544;2023-05-24T10:32:36;102094.53;;;16.95;48.83
50732;BME280;36700;50.488;2.544;2023-05-24T10:35:05;102099.13;;;16.95;48.85
50732;BME280;36700;50.488;2.544;2023-05-24T10:37:31;102094.75;;;16.94;48.77
50732;BME280;36700;50.488;2.544;2023-05-24T10:39:59;102090.97;;;16.95;48.19
50732;BME280;36700;50.488;2.544;2023-05-24T10:42:25;102089.09;;;16.95;48.41
50732;BME280;36700;50.488;2.544;2023-05-24T10:44:55;102096.41;;;17.22;47.67
50732;BME280;36700;50.488;2.544;2023-05-24T10:47:24;102087.94;;;17.57;45.77
50732;BME280;36700;50.488;2.544;2023-05-24T10:49:56;102087.66;;;17.79;43.56
50732;BME280;36700;50.488;2.544;2023-05-24T10:52:34;102094.56;;;18.21;43.29
50732;BME280;36700;50.488;2.544;2023-05-24T10:55:05;102095.13;;;18.36;43.01
50732;BME280;36700;50.488;2.544;2023-05-24T10:57:33;102091.31;;;18.44;42.87
50732;BME280;36700;50.488;2.544;2023-05-24T11:03:06;102091.31;;;18.44;43.22
50732;BME280;36700;50.488;2.544;2023-05-24T11:08:12;102091.84;;;18.78;42.68
50732;BME280;36700;50.488;2.544;2023-05-24T11:10:38;102086.69;;;18.95;43.17
50732;BME280;36700;50.488;2.544;2023-05-24T11:13:06;102078.25;;;19.04;43.10
50732;BME280;36700;50.488;2.544;2023-05-24T11:15:33;102077.03;;;19.18;42.52
50732;BME280;36700;50.488;2.544;2023-05-24T11:20:34;102063.41;;;19.37;43.01
50732;BME280;36700;50.488;2.544;2023-05-24T11:23:07;102061.34;;;19.51;42.62
50732;BME280;36700;50.488;2.544;2023-05-24T11:25:37;102062.56;;;19.55;42.87
50732;BME280;36700;50.488;2.544;2023-05-24T11:28:08;102071.50;;;19.62;42.91
50732;BME280;36700;50.488;2.544;2023-05-24T11:30:39;102063.31;;;19.62;42.82
50732;BME280;36700;50.488;2.544;2023-05-24T11:33:18;102053.63;;;19.67;42.74
50732;BME280;36700;50.488;2.544;2023-05-24T11:35:54;102067.16;;;19.73;42.57
50732;BME280;36700;50.488;2.544;2023-05-24T11:38:20;102054.94;;;19.76;42.98
50732;BME280;36700;50.488;2.544;2023-05-24T11:40:48;102059.97;;;19.79;43.10
50732;BME280;36700;50.488;2.544;2023-05-24T11:43:19;102060.94;;;19.85;42.75
50732;BME280;36700;50.488;2.544;2023-05-24T11:45:47;102048.72;;;19.87;42.68
50732;BME280;36700;50.488;2.544;2023-05-24T11:48:15;102053.47;;;19.92;42.92
50732;BME280;36700;50.488;2.544;2023-05-24T11:50:43;102049.09;;;19.91;42.80
50732;BME280;36700;50.488;2.544;2023-05-24T11:53:10;102044.63;;;19.97;42.90
50732;BME280;36700;50.488;2.544;2023-05-24T11:55:37;102050.69;;;19.99;43.23
50732;BME280;36700;50.488;2.544;2023-05-24T11:58:10;102048.56;;;20.01;43.23
50732;BME280;36700;50.488;2.544;2023-05-24T12:00:38;102051.91;;;20.03;43.45
50732;BME280;36700;50.488;2.544;2023-05-24T12:03:04;102036.69;;;20.07;43.40
50732;BME280;36700;50.488;2.544;2023-05-24T12:05:32;102042.78;;;20.09;43.17
50732;BME280;36700;50.488;2.544;2023-05-24T12:08:03;102035.66;;;20.08;43.34
50732;BME280;36700;50.488;2.544;2023-05-24T12:10:34;102029.13;;;20.09;43.67
50732;BME280;36700;50.488;2.544;2023-05-24T12:13:17;102037.69;;;20.13;43.17
50732;BME280;36700;50.488;2.544;2023-05-24T12:15:43;102042.66;;;20.16;43.72
50732;BME280;36700;50.488;2.544;2023-05-24T12:18:23;102039.69;;;20.17;43.75
50732;BME280;36700;50.488;2.544;2023-05-24T12:20:49;102025.69;;;20.14;43.90
50732;BME280;36700;50.488;2.544;2023-05-24T12:23:19;102026.97;;;20.11;43.88
50732;BME280;36700;50.488;2.544;2023-05-24T12:25:46;102030.56;;;20.12;43.79
50732;BME280;36700;50.488;2.544;2023-05-24T12:28:12;102029.94;;;20.10;43.80
50732;BME280;36700;50.488;2.544;2023-05-24T12:30:38;102020.56;;;20.06;43.63
50732;BME280;36700;50.488;2.544;2023-05-24T12:33:17;102018.06;;;20.04;43.45
50732;BME280;36700;50.488;2.544;2023-05-24T12:35:44;102022.47;;;20.05;43.19
50732;BME280;36700;50.488;2.544;2023-05-24T12:38:11;102021.63;;;20.04;43.58
50732;BME280;36700;50.488;2.544;2023-05-24T12:40:41;102021.88;;;20.03;43.53
50732;BME280;36700;50.488;2.544;2023-05-24T12:43:08;102021.03;;;20.02;43.69
50732;BME280;36700;50.488;2.544;2023-05-24T12:45:35;102018.50;;;20.01;43.43
50732;BME280;36700;50.488;2.544;2023-05-24T12:48:02;102018.16;;;19.97;43.47
50732;BME280;36700;50.488;2.544;2023-05-24T12:50:29;102014.59;;;19.97;43.59
50732;BME280;36700;50.488;2.544;2023-05-24T12:52:56;102016.69;;;19.95;43.86
50732;BME280;36700;50.488;2.544;2023-05-24T12:55:23;102019.69;;;19.93;43.98
50732;BME280;36700;50.488;2.544;2023-05-24T12:57:53;102019.69;;;19.93;43.86
50732;BME280;36700;50.488;2.544;2023-05-24T13:00:21;102014.22;;;19.93;43.92
50732;BME280;36700;50.488;2.544;2023-05-24T13:02:47;102012.53;;;19.92;43.78
50732;BME280;36700;50.488;2.544;2023-05-24T13:05:14;102013.00;;;19.89;43.90
50732;BME280;36700;50.488;2.544;2023-05-24T13:07:42;102009.69;;;19.87;44.25
50732;BME280;36700;50.488;2.544;2023-05-24T13:10:10;102008.84;;;19.86;44.17
50732;BME280;36700;50.488;2.544;2023-05-24T13:12:36;102010.72;;;19.86;44.35
50732;BME280;36700;50.488;2.544;2023-05-24T13:15:04;102000.06;;;19.84;43.98
50732;BME280;36700;50.488;2.544;2023-05-24T13:17:30;102003.59;;;19.85;44.30
50732;BME280;36700;50.488;2.544;2023-05-24T13:19:57;102006.13;;;19.86;44.33
50732;BME280;36700;50.488;2.544;2023-05-24T13:22:24;102002.53;;;19.86;44.46
50732;BME280;36700;50.488;2.544;2023-05-24T13:24:50;101999.34;;;19.89;44.32
50732;BME280;36700;50.488;2.544;2023-05-24T13:27:16;102003.38;;;19.86;44.31